Aérodrome :
LOGIN :

S'inscrire | Disclaimer

   EN    FR    IT 

 










Légende :    VFR   VFR Marginal   IFR   IFR Intensif   IFR Très Intensif
Visi : 
Plafond : 
>= 8 km
>= 3000ft
5 à 8 km
1000 à 3000 ft
1500m à 5 km
500 à 1000 ft
800 à 1500m
200 à 500 ft
< 800m
< 200 ft
Symboles :   Orages  Brouillard  Fortes neiges  Fortes précipitations  Vent > 20 kt
SIGMETs :   Divers  Orages  Givrage  Turbulence  Onde Orograph.  Cendres Volcan.







- Altitude de l'aérodrome : 62 ft
- Code IATA : TAN


GMTT - Tanger Ibn Batouta

DERNIER METAR :
  • 250430Z VRB02KT 6000 SCT016 SCT200 14/12 Q1015 NOSIG

METARs EXPIRÉS :
  • 250400Z VRB02KT 6000 SCT016 SCT200 14/12 Q1014 NOSIG
  • 250330Z 25003KT 6000 SCT016 SCT200 14/12 Q1014 NOSIG
  • 250300Z VRB02KT 6000 SCT016 SCT200 15/12 Q1015 NOSIG
  • 250230Z 22006KT 6000 SCT016 SCT200 15/12 Q1015 NOSIG
  • 250200Z 21006KT 6000 SCT016 SCT200 15/13 Q1014 NOSIG

TAF TAF GMTT
Valide du 25 à 00h jusqu'au 26 à 06h UTC


242300Z 2500/2606 VRB02KT 6000 BKN016
TEMPO 2512/2518 28016KT
Pas de NOTAMs connus pour ce terrain.
2 SIGMETs publiés pour la FIR Casablanca (GMMM) :
 
Turbulence forte
GMMM SIGMET T1 VALID 250300/250700 GMMC
GMMM CASABLANCA FIR SEV TURB FCST E OF LINE N3036 W00441 - N3127 W00 557 - N3324 W00559 - N3509 W00216 FL280/320 STNR WKN=
Orages noyés dans la masse
GMMM SIGMET 01 VALID 250300/250700 GMMC
GMMM CASABLANCA FIR EMBD TS OBS N OF LINE N3317 W00228 - N3356 W0054 9 - N3504 W00814 TOP FL340 STNR NC=



MET'MAP, la Météo Aéronautique d'un coup d'oeil ! - Copyright ORBIFLY Décembre 2007 - Disclaimer

ORBIFLY MET'MAP TEAM :

Programmation & Développement : Alexandra Zaïnal
Conception & Développement : Baudouin d'Aumeries
Co-Programmation & Développement : Marc-Olivier Méhu
Soutien technique & logistique : Manuel Goepfert

Contact : metmap@orbifly.com




SOURCES & CREDITS :

   NOAA